createdAt,value
2018-07-31T00:00:45.015Z,2.40
2018-07-31T00:01:45.027Z,2.70
2018-07-31T00:02:45.030Z,2.40
2018-07-31T00:03:45.048Z,2.50
2018-07-31T00:04:45.055Z,2.10
2018-07-31T00:05:45.056Z,2.10
2018-07-31T00:06:45.078Z,2.60
2018-07-31T00:07:45.075Z,2.00
2018-07-31T00:08:45.081Z,2.40
2018-07-31T00:09:45.098Z,2.30
2018-07-31T00:10:45.111Z,2.40
2018-07-31T00:11:45.103Z,2.00
2018-07-31T00:12:45.124Z,2.00
2018-07-31T00:13:45.132Z,2.40
2018-07-31T00:14:45.127Z,2.30
2018-07-31T00:15:45.143Z,2.30
2018-07-31T00:16:45.153Z,2.10
2018-07-31T00:17:45.267Z,2.10
2018-07-31T00:18:45.163Z,2.20
2018-07-31T00:19:45.169Z,2.10
2018-07-31T00:20:45.187Z,2.30
2018-07-31T00:21:45.186Z,2.50
2018-07-31T00:22:45.200Z,2.10
2018-07-31T00:23:45.202Z,2.30
2018-07-31T00:24:45.759Z,2.60
2018-07-31T00:25:45.228Z,2.20
2018-07-31T00:26:45.226Z,2.10
2018-07-31T00:27:45.243Z,2.20
2018-07-31T00:28:45.250Z,2.30
2018-07-31T00:29:45.261Z,2.10
2018-07-31T00:30:45.272Z,2.60
2018-07-31T00:31:45.279Z,2.50
2018-07-31T00:32:45.287Z,2.00
2018-07-31T00:33:45.299Z,2.10
2018-07-31T00:34:45.304Z,2.00
2018-07-31T00:35:45.312Z,2.10
2018-07-31T00:36:45.323Z,2.00
2018-07-31T00:37:45.322Z,2.10
2018-07-31T00:38:45.330Z,2.10
2018-07-31T00:39:45.337Z,1.90
2018-07-31T00:40:45.346Z,2.10
2018-07-31T00:41:45.357Z,2.00
2018-07-31T00:42:45.361Z,2.10
2018-07-31T00:43:45.372Z,2.20
2018-07-31T00:44:45.376Z,2.60
2018-07-31T00:45:45.389Z,2.30
2018-07-31T00:46:45.391Z,2.20
2018-07-31T00:47:45.403Z,2.10
2018-07-31T00:48:45.411Z,2.00
2018-07-31T00:49:45.426Z,2.50
2018-07-31T00:50:45.427Z,2.20
2018-07-31T00:51:45.433Z,1.90
2018-07-31T00:52:45.447Z,1.80
2018-07-31T00:53:45.455Z,2.30
2018-07-31T00:54:45.465Z,2.00
2018-07-31T00:55:45.465Z,2.70
2018-07-31T00:56:45.484Z,2.10
2018-07-31T00:57:45.485Z,2.30
2018-07-31T00:58:45.490Z,2.40
2018-07-31T00:59:45.500Z,2.20
2018-07-31T01:00:45.502Z,1.90
2018-07-31T01:01:45.528Z,2.40
2018-07-31T01:02:45.528Z,2.30
2018-07-31T01:03:45.546Z,2.40
2018-07-31T01:04:45.551Z,2.40
2018-07-31T01:05:45.548Z,2.20
2018-07-31T01:06:45.606Z,2.50
2018-07-31T01:07:45.561Z,2.10
2018-07-31T01:08:45.580Z,2.50
2018-07-31T01:09:45.573Z,2.70
2018-07-31T01:10:45.594Z,2.70
2018-07-31T01:11:45.589Z,2.40
2018-07-31T01:12:45.608Z,2.20
2018-07-31T01:13:45.614Z,2.30
2018-07-31T01:14:45.623Z,2.40
2018-07-31T01:15:45.634Z,2.30
2018-07-31T01:16:45.643Z,2.20
2018-07-31T01:17:45.653Z,2.70
2018-07-31T01:18:45.658Z,2.80
2018-07-31T01:19:45.656Z,2.60
2018-07-31T01:20:45.669Z,2.30
2018-07-31T01:21:45.675Z,2.70
2018-07-31T01:22:45.685Z,2.50
2018-07-31T01:23:45.692Z,2.60
2018-07-31T01:24:45.698Z,2.40
2018-07-31T01:25:45.711Z,2.70
2018-07-31T01:26:45.714Z,2.30
2018-07-31T01:27:45.720Z,2.60
2018-07-31T01:28:45.731Z,2.80
2018-07-31T01:29:45.735Z,2.50
2018-07-31T01:30:45.742Z,2.50
2018-07-31T01:31:45.753Z,3.00
2018-07-31T01:32:45.761Z,2.80
2018-07-31T01:33:45.772Z,2.90
2018-07-31T01:34:45.775Z,2.60
2018-07-31T01:35:45.788Z,3.10
2018-07-31T01:36:45.790Z,3.40
2018-07-31T01:37:45.803Z,3.00
2018-07-31T01:38:45.809Z,2.40
2018-07-31T01:39:45.813Z,2.90
2018-07-31T01:40:45.822Z,2.90
2018-07-31T01:41:45.830Z,3.00
2018-07-31T01:42:45.840Z,3.20
2018-07-31T01:43:45.839Z,3.00
2018-07-31T01:44:45.853Z,3.30
2018-07-31T01:45:45.866Z,3.30
2018-07-31T01:46:45.864Z,3.10
2018-07-31T01:47:45.885Z,3.50
2018-07-31T01:48:45.882Z,3.10
2018-07-31T01:49:45.896Z,3.20
2018-07-31T01:50:45.903Z,3.70
2018-07-31T01:51:45.906Z,3.60
2018-07-31T01:52:45.920Z,3.50
2018-07-31T01:53:45.930Z,3.30
2018-07-31T01:54:45.925Z,3.50
2018-07-31T01:55:45.940Z,3.70
2018-07-31T01:56:45.944Z,3.70
2018-07-31T01:57:45.959Z,3.90
2018-07-31T01:58:45.977Z,4.20
2018-07-31T01:59:46.010Z,4.10
2018-07-31T02:00:45.982Z,4.10
2018-07-31T02:01:45.994Z,4.00
2018-07-31T02:02:45.993Z,4.40
2018-07-31T02:03:46.000Z,4.90
2018-07-31T02:04:46.009Z,4.50
2018-07-31T02:05:46.012Z,4.40
2018-07-31T02:06:46.025Z,4.60
2018-07-31T02:07:46.040Z,4.50
2018-07-31T02:08:46.044Z,4.40
2018-07-31T02:09:46.059Z,4.70
2018-07-31T02:10:46.080Z,4.80
2018-07-31T02:11:46.063Z,5.00
2018-07-31T02:12:46.110Z,4.80
2018-07-31T02:13:46.072Z,4.50
2018-07-31T02:14:46.085Z,4.20
2018-07-31T02:15:46.093Z,5.30
2018-07-31T02:16:46.101Z,4.60
2018-07-31T02:17:46.115Z,5.00
2018-07-31T02:18:46.153Z,5.90
2018-07-31T02:19:46.125Z,4.80
2018-07-31T02:20:46.157Z,5.00
2018-07-31T02:21:46.138Z,5.00
2018-07-31T02:22:46.146Z,5.10
2018-07-31T02:23:46.149Z,5.00
2018-07-31T02:24:46.197Z,5.60
2018-07-31T02:25:46.164Z,5.00
2018-07-31T02:26:46.167Z,5.00
2018-07-31T02:27:46.183Z,5.40
2018-07-31T02:28:46.251Z,5.60
2018-07-31T02:29:46.214Z,5.10
2018-07-31T02:30:46.216Z,5.10
2018-07-31T02:31:46.207Z,5.00
2018-07-31T02:32:46.239Z,5.30
2018-07-31T02:33:46.237Z,5.30
2018-07-31T02:34:46.256Z,5.30
2018-07-31T02:35:46.240Z,5.10
2018-07-31T02:36:46.272Z,5.40
2018-07-31T02:37:46.288Z,5.60
2018-07-31T02:38:46.283Z,5.80
2018-07-31T02:39:46.289Z,5.80
2018-07-31T02:40:46.300Z,5.80
2018-07-31T02:41:46.281Z,5.90
2018-07-31T02:42:46.315Z,6.10
2018-07-31T02:43:46.324Z,6.10
2018-07-31T02:44:46.334Z,6.30
2018-07-31T02:45:46.344Z,5.90
2018-07-31T02:46:46.407Z,6.10
2018-07-31T02:47:46.345Z,7.00
2018-07-31T02:48:46.362Z,6.20
2018-07-31T02:49:46.359Z,6.30
2018-07-31T02:50:46.379Z,6.30
2018-07-31T02:51:46.376Z,6.90
2018-07-31T02:52:46.394Z,6.70
2018-07-31T02:53:46.417Z,7.20
2018-07-31T02:54:46.411Z,6.80
2018-07-31T02:55:46.412Z,6.80
2018-07-31T02:56:46.416Z,7.70
2018-07-31T02:57:46.417Z,7.60
2018-07-31T02:58:46.433Z,7.70
2018-07-31T02:59:46.454Z,7.80
2018-07-31T03:00:46.439Z,7.60
2018-07-31T03:01:46.453Z,8.60
2018-07-31T03:02:46.453Z,8.40
2018-07-31T03:03:46.455Z,7.80
2018-07-31T03:04:46.466Z,8.40
2018-07-31T03:05:46.479Z,8.20
2018-07-31T03:06:46.486Z,8.70
2018-07-31T03:07:46.495Z,9.50
2018-07-31T03:08:46.501Z,8.60
2018-07-31T03:09:47.328Z,8.60
2018-07-31T03:10:46.502Z,9.40
2018-07-31T03:11:46.505Z,8.70
2018-07-31T03:12:46.517Z,9.70
2018-07-31T03:13:46.521Z,9.90
2018-07-31T03:14:46.529Z,9.20
2018-07-31T03:15:46.534Z,9.10
2018-07-31T03:16:46.548Z,10.40
2018-07-31T03:17:46.546Z,10.50
2018-07-31T03:18:46.558Z,9.50
2018-07-31T03:19:46.563Z,9.70
2018-07-31T03:20:46.574Z,9.80
2018-07-31T03:21:46.584Z,9.90
2018-07-31T03:22:46.584Z,9.80
2018-07-31T03:23:46.593Z,10.00
2018-07-31T03:24:46.603Z,10.50
2018-07-31T03:25:46.600Z,10.40
2018-07-31T03:26:46.611Z,10.20
2018-07-31T03:27:46.620Z,10.30
2018-07-31T03:28:46.636Z,10.20
2018-07-31T03:29:47.325Z,10.70
2018-07-31T03:30:46.642Z,10.40
2018-07-31T03:31:46.646Z,10.90
2018-07-31T03:32:46.660Z,11.20
2018-07-31T03:33:46.663Z,10.10
2018-07-31T03:34:46.672Z,10.40
2018-07-31T03:35:46.683Z,11.10
2018-07-31T03:36:46.681Z,11.20
2018-07-31T03:37:46.695Z,10.10
2018-07-31T03:38:46.708Z,11.20
2018-07-31T03:39:46.707Z,10.50
2018-07-31T03:40:46.712Z,10.80
2018-07-31T03:41:46.726Z,10.70
2018-07-31T03:42:46.730Z,10.80
2018-07-31T03:43:46.738Z,10.70
2018-07-31T03:44:46.746Z,10.10
2018-07-31T03:45:46.749Z,11.10
2018-07-31T03:46:46.757Z,10.10
2018-07-31T03:47:46.764Z,10.80
2018-07-31T03:48:46.774Z,10.90
2018-07-31T03:49:46.771Z,11.30
2018-07-31T03:50:47.330Z,10.50
2018-07-31T03:51:46.789Z,10.50
2018-07-31T03:52:46.809Z,11.10
2018-07-31T03:53:46.812Z,10.80
2018-07-31T03:54:46.818Z,10.70
2018-07-31T03:55:46.815Z,10.50
2018-07-31T03:56:46.831Z,10.40
2018-07-31T03:57:46.829Z,10.60
2018-07-31T03:58:46.851Z,10.20
2018-07-31T03:59:46.849Z,10.00
2018-07-31T04:00:46.866Z,10.60
2018-07-31T04:01:47.836Z,10.80
2018-07-31T04:02:46.866Z,10.70
2018-07-31T04:03:46.880Z,10.30
2018-07-31T04:04:46.932Z,10.00
2018-07-31T04:05:46.889Z,9.70
2018-07-31T04:06:46.896Z,10.30
2018-07-31T04:07:46.900Z,10.40
2018-07-31T04:08:46.906Z,9.80
2018-07-31T04:09:46.918Z,10.10
2018-07-31T04:10:46.926Z,11.00
2018-07-31T04:11:46.933Z,10.80
2018-07-31T04:12:47.856Z,10.40
2018-07-31T04:13:46.950Z,10.00
2018-07-31T04:14:46.951Z,9.70
2018-07-31T04:15:46.958Z,10.80
2018-07-31T04:16:47.007Z,10.50
2018-07-31T04:17:46.972Z,10.60
2018-07-31T04:18:46.995Z,10.30
2018-07-31T04:19:46.983Z,11.60
2018-07-31T04:20:46.992Z,10.30
2018-07-31T04:21:46.990Z,10.30
2018-07-31T04:22:47.006Z,10.20
2018-07-31T04:23:47.015Z,9.90
2018-07-31T04:24:47.018Z,10.40
2018-07-31T04:25:47.031Z,9.80
2018-07-31T04:26:47.030Z,9.50
2018-07-31T04:27:47.041Z,9.70
2018-07-31T04:28:47.051Z,9.90
2018-07-31T04:29:47.051Z,9.60
2018-07-31T04:30:47.060Z,9.60
2018-07-31T04:31:47.071Z,9.20
2018-07-31T04:32:47.073Z,9.20
2018-07-31T04:33:47.079Z,9.50
2018-07-31T04:34:47.088Z,9.30
2018-07-31T04:35:47.110Z,10.00
2018-07-31T04:36:47.105Z,9.50
2018-07-31T04:37:47.111Z,8.60
2018-07-31T04:38:47.124Z,9.00
2018-07-31T04:39:47.130Z,9.10
2018-07-31T04:40:47.130Z,9.30
2018-07-31T04:41:47.143Z,8.90
2018-07-31T04:42:47.156Z,8.60
2018-07-31T04:43:47.152Z,9.60
2018-07-31T04:44:47.169Z,8.90
2018-07-31T04:45:47.176Z,8.70
2018-07-31T04:46:47.172Z,7.90
2018-07-31T04:47:47.192Z,9.10
2018-07-31T04:48:47.192Z,8.40
2018-07-31T04:49:47.196Z,8.40
2018-07-31T04:50:47.211Z,9.10
2018-07-31T04:51:47.212Z,8.70
2018-07-31T04:52:47.228Z,8.60
2018-07-31T04:53:47.225Z,8.20
2018-07-31T04:54:47.236Z,8.10
2018-07-31T04:55:47.247Z,8.40
2018-07-31T04:56:47.262Z,8.60
2018-07-31T04:57:47.264Z,8.30
2018-07-31T04:58:47.268Z,8.50
2018-07-31T04:59:47.272Z,7.60
2018-07-31T05:00:47.289Z,8.40
2018-07-31T05:01:47.294Z,9.00
2018-07-31T05:02:47.294Z,8.30
2018-07-31T05:03:47.309Z,8.10
2018-07-31T05:04:47.308Z,8.10
2018-07-31T05:05:47.323Z,8.30
2018-07-31T05:06:47.329Z,8.20
2018-07-31T05:07:47.337Z,7.80
2018-07-31T05:08:47.349Z,8.30
2018-07-31T05:09:47.358Z,8.50
2018-07-31T05:10:47.363Z,8.20
2018-07-31T05:11:47.366Z,7.80
2018-07-31T05:12:47.374Z,8.00
2018-07-31T05:13:47.382Z,7.50
2018-07-31T05:14:47.385Z,8.50
2018-07-31T05:15:47.397Z,7.80
2018-07-31T05:16:47.405Z,7.90
2018-07-31T05:17:47.420Z,8.40
2018-07-31T05:18:47.424Z,7.70
2018-07-31T05:19:47.425Z,7.50
2018-07-31T05:20:47.433Z,8.00
2018-07-31T05:21:47.451Z,7.10
2018-07-31T05:22:47.457Z,8.00
2018-07-31T05:23:47.453Z,7.60
2018-07-31T05:24:47.475Z,7.10
2018-07-31T05:25:47.473Z,7.80
2018-07-31T05:26:47.490Z,7.30
2018-07-31T05:27:47.488Z,6.70
2018-07-31T05:28:47.506Z,6.90
2018-07-31T05:29:47.515Z,6.70
2018-07-31T05:30:47.514Z,6.90
2018-07-31T05:31:47.532Z,6.50
2018-07-31T05:32:47.600Z,7.50
2018-07-31T05:33:47.538Z,6.50
2018-07-31T05:34:47.550Z,7.10
2018-07-31T05:35:47.559Z,6.10
2018-07-31T05:36:47.561Z,7.10
2018-07-31T05:37:47.588Z,7.10
2018-07-31T05:38:47.579Z,6.60
2018-07-31T05:39:47.596Z,6.70
2018-07-31T05:40:47.604Z,6.00
2018-07-31T05:41:47.606Z,5.50
2018-07-31T05:42:47.622Z,5.80
2018-07-31T05:43:47.631Z,5.90
2018-07-31T05:44:47.640Z,5.90
2018-07-31T05:45:47.645Z,6.30
2018-07-31T05:46:47.661Z,5.20
2018-07-31T05:47:47.669Z,5.40
2018-07-31T05:48:47.681Z,5.40
2018-07-31T05:49:47.782Z,5.30
2018-07-31T05:50:47.716Z,5.60
2018-07-31T05:51:47.761Z,5.20
2018-07-31T05:52:47.748Z,5.50
2018-07-31T05:53:48.416Z,5.00
2018-07-31T05:54:47.754Z,5.00
2018-07-31T05:55:47.758Z,5.90
2018-07-31T05:56:47.775Z,5.50
2018-07-31T05:57:47.780Z,4.80
2018-07-31T05:58:47.795Z,5.20
2018-07-31T05:59:47.808Z,4.90
2018-07-31T06:00:47.818Z,5.40
2018-07-31T06:01:47.832Z,5.30
2018-07-31T06:02:47.845Z,5.60
2018-07-31T06:03:47.864Z,5.40
2018-07-31T06:04:47.875Z,5.60
2018-07-31T06:05:47.886Z,5.40
2018-07-31T06:06:47.898Z,5.00
2018-07-31T06:07:47.917Z,5.00
2018-07-31T06:08:47.922Z,4.80
2018-07-31T06:09:47.944Z,5.10
2018-07-31T06:10:47.977Z,4.60
2018-07-31T06:11:47.975Z,5.30
2018-07-31T06:12:47.980Z,5.30
2018-07-31T06:13:48.890Z,5.10
2018-07-31T06:14:48.014Z,5.00
2018-07-31T06:15:48.023Z,5.10
2018-07-31T06:16:48.048Z,4.90
2018-07-31T06:17:48.054Z,4.90
2018-07-31T06:18:48.068Z,5.10
2018-07-31T06:19:48.089Z,4.80
2018-07-31T06:20:48.103Z,5.40
2018-07-31T06:21:48.125Z,5.70
2018-07-31T06:22:48.135Z,5.20
2018-07-31T06:23:48.150Z,5.30
2018-07-31T06:24:48.166Z,4.40
2018-07-31T06:25:48.182Z,5.20
2018-07-31T06:26:48.192Z,5.00
2018-07-31T06:27:48.205Z,4.80
2018-07-31T06:28:48.229Z,4.70
2018-07-31T06:29:48.266Z,5.40
2018-07-31T06:30:48.259Z,4.90
2018-07-31T06:31:48.281Z,5.10
2018-07-31T06:32:48.334Z,4.70
2018-07-31T06:33:48.311Z,4.60
2018-07-31T06:34:48.336Z,5.00
2018-07-31T06:35:48.354Z,4.50
2018-07-31T06:36:48.365Z,4.60
2018-07-31T06:37:48.374Z,5.00
2018-07-31T06:38:48.393Z,4.90
2018-07-31T06:39:48.413Z,4.20
2018-07-31T06:40:48.430Z,4.80
2018-07-31T06:41:48.447Z,5.00
2018-07-31T06:42:48.468Z,4.90
2018-07-31T06:43:48.482Z,4.60
2018-07-31T06:44:48.516Z,4.60
2018-07-31T06:45:48.522Z,4.20
2018-07-31T06:46:48.549Z,3.70
2018-07-31T06:47:48.580Z,4.40
2018-07-31T06:48:48.584Z,4.70
2018-07-31T06:49:48.589Z,4.50
2018-07-31T06:50:48.619Z,4.50
2018-07-31T06:51:48.644Z,4.80
2018-07-31T06:52:48.648Z,4.50
2018-07-31T06:53:48.695Z,4.10
2018-07-31T06:54:48.687Z,4.20
2018-07-31T06:55:48.709Z,4.10
2018-07-31T06:56:48.738Z,4.60
2018-07-31T06:57:48.743Z,4.10
2018-07-31T06:58:48.758Z,4.40
2018-07-31T06:59:48.777Z,4.20
2018-07-31T07:00:48.797Z,4.40
2018-07-31T07:01:48.819Z,4.70
2018-07-31T07:02:48.849Z,4.50
2018-07-31T07:03:48.858Z,4.00
2018-07-31T07:04:48.872Z,4.10
2018-07-31T07:05:48.905Z,4.30
2018-07-31T07:06:48.919Z,3.80
2018-07-31T07:07:48.936Z,4.10
2018-07-31T07:08:48.964Z,4.30
2018-07-31T07:09:48.971Z,4.90
2018-07-31T07:10:49.011Z,3.90
2018-07-31T07:11:49.016Z,3.90
2018-07-31T07:12:49.030Z,3.80
2018-07-31T07:13:49.061Z,4.10
2018-07-31T07:14:49.075Z,4.30
2018-07-31T07:15:49.097Z,4.30
2018-07-31T07:16:49.123Z,3.80
2018-07-31T07:17:49.131Z,4.20
2018-07-31T07:18:49.163Z,4.20
2018-07-31T07:19:49.175Z,4.10
2018-07-31T07:20:49.190Z,4.50
2018-07-31T07:21:49.220Z,4.20
2018-07-31T07:22:49.234Z,3.80
2018-07-31T07:23:49.249Z,4.10
2018-07-31T07:24:49.268Z,3.80
2018-07-31T07:25:49.292Z,3.60
2018-07-31T07:26:49.313Z,3.30
2018-07-31T07:27:49.350Z,4.10
2018-07-31T07:28:49.354Z,3.30
2018-07-31T07:29:49.363Z,3.40
2018-07-31T07:30:49.390Z,3.50
2018-07-31T07:31:49.406Z,3.50
2018-07-31T07:32:49.433Z,3.40
2018-07-31T07:33:49.511Z,3.80
2018-07-31T07:34:49.478Z,4.10
2018-07-31T07:35:49.491Z,3.60
2018-07-31T07:36:49.508Z,4.00
2018-07-31T07:37:49.536Z,3.90
2018-07-31T07:38:49.548Z,3.50
2018-07-31T07:39:49.596Z,3.70
2018-07-31T07:40:49.588Z,3.90
2018-07-31T07:41:49.600Z,4.00
2018-07-31T07:42:49.631Z,3.80
2018-07-31T07:43:49.644Z,4.40
2018-07-31T07:44:49.658Z,3.70
2018-07-31T07:45:49.678Z,3.90
2018-07-31T07:46:49.696Z,3.50
2018-07-31T07:47:49.715Z,3.70
2018-07-31T07:48:49.726Z,3.40
2018-07-31T07:49:49.754Z,3.60
2018-07-31T07:50:49.763Z,4.00
2018-07-31T07:51:49.798Z,3.50
2018-07-31T07:52:49.807Z,3.50
2018-07-31T07:53:49.861Z,3.70
2018-07-31T07:54:49.840Z,3.40
2018-07-31T07:55:49.876Z,3.10
2018-07-31T07:56:49.878Z,3.50
2018-07-31T07:57:49.894Z,3.70
2018-07-31T07:58:49.910Z,3.40
2018-07-31T07:59:49.937Z,3.50
2018-07-31T08:00:49.964Z,3.30
2018-07-31T08:01:49.974Z,3.40
2018-07-31T08:02:49.995Z,3.40
2018-07-31T08:03:50.044Z,3.50
2018-07-31T08:04:50.052Z,3.00
2018-07-31T08:05:50.051Z,3.10
2018-07-31T08:06:50.070Z,2.90
2018-07-31T08:07:50.091Z,3.00
2018-07-31T08:08:50.105Z,2.60
2018-07-31T08:09:50.177Z,3.00
2018-07-31T08:10:50.147Z,2.80
2018-07-31T08:11:50.159Z,2.90
2018-07-31T08:12:50.191Z,2.80
2018-07-31T08:13:50.200Z,2.50
2018-07-31T08:14:50.220Z,3.10
2018-07-31T08:15:50.239Z,2.80
2018-07-31T08:16:50.254Z,2.80
2018-07-31T08:17:50.294Z,2.70
2018-07-31T08:18:50.299Z,2.60
2018-07-31T08:19:50.311Z,2.50
2018-07-31T08:20:50.341Z,2.50
2018-07-31T08:21:50.349Z,3.00
2018-07-31T08:22:50.365Z,2.70
2018-07-31T08:23:50.394Z,2.40
2018-07-31T08:24:50.405Z,2.50
2018-07-31T08:25:50.431Z,2.50
2018-07-31T08:26:50.459Z,2.80
2018-07-31T08:27:50.506Z,2.70
2018-07-31T08:28:50.480Z,2.30
2018-07-31T08:29:50.508Z,2.40
2018-07-31T08:30:50.521Z,1.90
2018-07-31T08:31:50.567Z,2.10
2018-07-31T08:32:50.562Z,2.30
2018-07-31T08:33:50.578Z,2.50
2018-07-31T08:34:50.619Z,2.10
2018-07-31T08:35:50.623Z,2.10
2018-07-31T08:36:50.636Z,2.00
2018-07-31T08:37:50.657Z,2.60
2018-07-31T08:38:50.676Z,2.40
2018-07-31T08:39:50.692Z,2.30
2018-07-31T08:40:50.715Z,1.80
2018-07-31T08:41:50.749Z,2.30
2018-07-31T08:42:50.758Z,2.20
2018-07-31T08:43:50.817Z,2.50
2018-07-31T08:44:50.800Z,2.20
2018-07-31T08:45:50.813Z,2.30
2018-07-31T08:46:50.839Z,2.50
2018-07-31T08:47:50.858Z,2.30
2018-07-31T08:48:50.880Z,2.40
2018-07-31T08:49:50.946Z,2.40
2018-07-31T08:50:50.930Z,2.60
2018-07-31T08:51:50.956Z,2.20
2018-07-31T08:52:50.966Z,2.20
2018-07-31T08:53:50.991Z,2.30
2018-07-31T08:54:51.004Z,2.80
2018-07-31T08:55:51.077Z,2.80
2018-07-31T08:56:51.109Z,3.30
2018-07-31T08:57:51.078Z,2.50
2018-07-31T08:58:51.093Z,2.20
2018-07-31T08:59:51.124Z,2.00
2018-07-31T09:00:51.142Z,2.10
2018-07-31T09:01:51.160Z,1.90
2018-07-31T09:02:51.216Z,2.50
2018-07-31T09:03:51.209Z,2.30
2018-07-31T09:04:51.236Z,2.20
2018-07-31T09:05:51.252Z,2.20
2018-07-31T09:06:51.953Z,2.30
2018-07-31T09:07:51.296Z,2.40
2018-07-31T09:08:51.389Z,2.20
2018-07-31T09:09:51.338Z,2.20
2018-07-31T09:10:51.385Z,2.20
2018-07-31T09:11:51.388Z,5.70
2018-07-31T09:12:51.412Z,2.70
2018-07-31T09:13:51.432Z,2.30
2018-07-31T09:14:51.458Z,2.40
2018-07-31T09:15:51.486Z,2.30
2018-07-31T09:16:51.501Z,2.20
2018-07-31T09:17:51.531Z,2.40
2018-07-31T09:18:51.548Z,2.00
2018-07-31T09:19:51.581Z,2.30
2018-07-31T09:20:51.633Z,2.00
2018-07-31T09:21:51.624Z,2.30
2018-07-31T09:22:51.643Z,1.90
2018-07-31T09:23:51.668Z,1.90
2018-07-31T09:24:51.774Z,1.50
2018-07-31T09:25:51.714Z,1.90
2018-07-31T09:26:52.455Z,1.80
2018-07-31T09:27:51.756Z,1.80
2018-07-31T09:28:51.788Z,1.70
2018-07-31T09:29:51.799Z,2.30
2018-07-31T09:30:51.953Z,1.90
2018-07-31T09:31:51.843Z,1.90
2018-07-31T09:32:51.866Z,1.80
2018-07-31T09:33:51.890Z,2.00
2018-07-31T09:34:51.905Z,2.10
2018-07-31T09:35:51.930Z,1.80
2018-07-31T09:36:51.949Z,1.70
2018-07-31T09:37:51.995Z,2.00
2018-07-31T09:38:51.989Z,2.10
2018-07-31T09:39:52.010Z,1.70
2018-07-31T09:40:52.033Z,1.70
2018-07-31T09:41:52.058Z,1.70
2018-07-31T09:42:52.074Z,1.80
2018-07-31T09:43:52.093Z,1.50
2018-07-31T09:44:52.124Z,1.90
2018-07-31T09:45:52.152Z,1.80
2018-07-31T09:46:52.164Z,1.70
2018-07-31T09:47:52.173Z,2.00
2018-07-31T09:48:52.190Z,1.70
2018-07-31T09:49:52.221Z,1.80
2018-07-31T09:50:52.234Z,1.90
2018-07-31T09:51:52.261Z,1.90
2018-07-31T09:52:52.282Z,1.90
2018-07-31T09:53:52.294Z,1.80
2018-07-31T09:54:52.321Z,1.50
2018-07-31T09:55:52.340Z,1.70
2018-07-31T09:56:52.354Z,2.00
2018-07-31T09:57:52.378Z,1.70
2018-07-31T09:58:52.399Z,1.50
2018-07-31T09:59:52.410Z,1.60
2018-07-31T10:00:52.436Z,1.60
2018-07-31T10:01:52.450Z,2.00
2018-07-31T10:02:52.493Z,1.70
2018-07-31T10:03:52.494Z,1.50
2018-07-31T10:04:52.516Z,1.70
2018-07-31T10:05:52.533Z,1.80
2018-07-31T10:06:52.553Z,1.50
2018-07-31T10:07:52.566Z,1.80
2018-07-31T10:08:52.585Z,1.60
2018-07-31T10:09:52.611Z,1.90
2018-07-31T10:10:52.625Z,1.50
2018-07-31T10:11:52.713Z,1.60
2018-07-31T10:12:52.666Z,1.50
2018-07-31T10:13:52.697Z,1.60
2018-07-31T10:14:52.705Z,1.50
2018-07-31T10:15:52.736Z,1.60
2018-07-31T10:16:52.761Z,1.90
2018-07-31T10:17:52.788Z,1.80
2018-07-31T10:18:52.797Z,1.60
2018-07-31T10:19:52.829Z,1.50
2018-07-31T10:20:52.835Z,1.50
2018-07-31T10:21:52.860Z,1.40
2018-07-31T10:22:52.881Z,1.70
2018-07-31T10:23:52.940Z,1.40
2018-07-31T10:24:52.925Z,1.50
2018-07-31T10:25:52.944Z,1.40
2018-07-31T10:26:52.962Z,1.50
2018-07-31T10:27:52.985Z,1.60
2018-07-31T10:28:53.006Z,1.50
2018-07-31T10:29:53.025Z,1.50
2018-07-31T10:30:53.117Z,1.60
2018-07-31T10:31:53.074Z,1.30
2018-07-31T10:32:53.084Z,1.30
2018-07-31T10:33:53.099Z,1.50
2018-07-31T10:34:53.123Z,1.30
2018-07-31T10:35:53.138Z,1.60
2018-07-31T10:36:53.161Z,1.50
2018-07-31T10:37:53.233Z,1.40
2018-07-31T10:38:53.198Z,1.20
2018-07-31T10:39:53.230Z,1.40
2018-07-31T10:40:53.240Z,1.50
2018-07-31T10:41:53.257Z,1.70
2018-07-31T10:42:53.271Z,1.30
2018-07-31T10:43:53.337Z,1.60
2018-07-31T10:44:53.316Z,1.40
2018-07-31T10:45:53.334Z,1.30
2018-07-31T10:46:53.352Z,1.10
2018-07-31T10:47:53.386Z,2.20
2018-07-31T10:48:53.450Z,1.50
2018-07-31T10:49:53.409Z,1.80
2018-07-31T10:50:53.433Z,1.50
2018-07-31T10:51:53.453Z,1.50
2018-07-31T10:52:53.474Z,1.60
2018-07-31T10:53:53.494Z,1.50
2018-07-31T10:54:53.541Z,1.60
2018-07-31T10:55:53.535Z,1.90
2018-07-31T10:56:53.552Z,1.50
2018-07-31T10:57:53.571Z,1.60
2018-07-31T10:58:53.590Z,1.70
2018-07-31T10:59:53.619Z,1.70
2018-07-31T11:00:53.627Z,1.60
2018-07-31T11:01:53.641Z,1.60
2018-07-31T11:02:53.764Z,2.10
2018-07-31T11:03:53.711Z,1.50
2018-07-31T11:04:53.686Z,1.60
2018-07-31T11:05:53.721Z,1.50
2018-07-31T11:06:53.731Z,1.40
2018-07-31T11:07:53.753Z,1.40
2018-07-31T11:08:53.773Z,1.50
2018-07-31T11:09:53.796Z,1.60
2018-07-31T11:10:53.804Z,1.50
2018-07-31T11:11:53.811Z,1.70
2018-07-31T11:12:53.838Z,1.40
2018-07-31T11:13:53.855Z,1.60
2018-07-31T11:14:53.868Z,1.60
2018-07-31T11:15:53.892Z,1.50
2018-07-31T11:16:53.907Z,1.30
2018-07-31T11:17:53.921Z,1.40
2018-07-31T11:18:53.941Z,1.20
2018-07-31T11:19:53.960Z,1.60
2018-07-31T11:20:53.981Z,1.30
2018-07-31T11:21:53.998Z,2.10
2018-07-31T11:22:54.007Z,1.60
2018-07-31T11:23:54.029Z,1.40
2018-07-31T11:24:54.046Z,1.50
2018-07-31T11:25:54.068Z,1.50
2018-07-31T11:26:54.089Z,1.40
2018-07-31T11:27:54.102Z,1.50
2018-07-31T11:28:54.117Z,1.70
2018-07-31T11:29:54.136Z,1.70
2018-07-31T11:30:54.156Z,1.50
2018-07-31T11:31:54.171Z,1.60
2018-07-31T11:32:54.235Z,1.80
2018-07-31T11:33:54.206Z,1.50
2018-07-31T11:34:54.226Z,1.50
2018-07-31T11:35:54.244Z,1.50
2018-07-31T11:36:54.268Z,1.40
2018-07-31T11:37:54.274Z,1.70
2018-07-31T11:38:54.299Z,1.60
2018-07-31T11:39:54.315Z,1.60
2018-07-31T11:40:54.382Z,1.40
2018-07-31T11:41:54.354Z,1.60
2018-07-31T11:42:54.364Z,1.50
2018-07-31T11:43:54.439Z,1.70
2018-07-31T11:44:54.401Z,1.70
2018-07-31T11:45:54.423Z,1.60
2018-07-31T11:46:54.444Z,1.70
2018-07-31T11:47:54.464Z,1.70
2018-07-31T11:48:54.480Z,1.60
2018-07-31T11:49:54.569Z,2.00
2018-07-31T11:50:54.634Z,1.70
2018-07-31T11:51:54.529Z,1.80
2018-07-31T11:52:54.581Z,1.60
2018-07-31T11:53:54.567Z,1.50
2018-07-31T11:54:54.579Z,1.70
2018-07-31T11:55:54.638Z,1.60
2018-07-31T11:56:54.617Z,1.80
2018-07-31T11:57:54.632Z,1.90
2018-07-31T11:58:54.653Z,1.70
2018-07-31T11:59:54.676Z,2.20
2018-07-31T12:00:54.690Z,1.80
2018-07-31T12:01:54.706Z,2.00
2018-07-31T12:02:54.735Z,1.60
2018-07-31T12:03:54.750Z,1.80
2018-07-31T12:04:55.513Z,1.60
2018-07-31T12:05:54.776Z,1.40
2018-07-31T12:06:54.799Z,1.90
2018-07-31T12:07:54.813Z,1.80
2018-07-31T12:08:54.824Z,1.50
2018-07-31T12:09:54.938Z,1.70
2018-07-31T12:10:54.869Z,1.70
2018-07-31T12:11:54.878Z,1.70
2018-07-31T12:12:54.920Z,1.50
2018-07-31T12:13:54.976Z,1.70
2018-07-31T12:14:54.931Z,1.80
2018-07-31T12:15:54.956Z,1.50
2018-07-31T12:16:54.960Z,1.70
2018-07-31T12:17:54.983Z,1.40
2018-07-31T12:18:54.993Z,1.50
2018-07-31T12:19:55.009Z,1.60
2018-07-31T12:20:55.080Z,1.70
2018-07-31T12:21:55.045Z,1.60
2018-07-31T12:22:55.050Z,1.60
2018-07-31T12:23:55.073Z,1.50
2018-07-31T12:24:55.096Z,1.30
2018-07-31T12:25:55.105Z,1.70
2018-07-31T12:26:55.154Z,1.60
2018-07-31T12:27:55.128Z,1.50
2018-07-31T12:28:55.147Z,1.40
2018-07-31T12:29:55.158Z,1.70
2018-07-31T12:30:55.176Z,1.80
2018-07-31T12:31:55.191Z,1.70
2018-07-31T12:32:55.255Z,1.40
2018-07-31T12:33:55.225Z,1.50
2018-07-31T12:34:55.241Z,1.40
2018-07-31T12:35:55.250Z,1.60
2018-07-31T12:36:55.292Z,1.70
2018-07-31T12:37:55.302Z,1.50
2018-07-31T12:38:55.298Z,1.80
2018-07-31T12:39:55.314Z,1.80
2018-07-31T12:40:55.319Z,1.50
2018-07-31T12:41:55.338Z,1.50
2018-07-31T12:42:55.345Z,1.50
2018-07-31T12:43:55.369Z,1.40
2018-07-31T12:44:55.381Z,1.70
2018-07-31T12:45:55.392Z,2.00
2018-07-31T12:46:55.406Z,1.60
2018-07-31T12:47:55.422Z,1.60
2018-07-31T12:48:55.440Z,1.70
2018-07-31T12:49:55.454Z,1.40
2018-07-31T12:50:55.466Z,1.30
2018-07-31T12:51:55.481Z,1.70
2018-07-31T12:52:55.490Z,1.50
2018-07-31T12:53:55.509Z,1.50
2018-07-31T12:54:55.521Z,1.50
2018-07-31T12:55:55.533Z,1.50
2018-07-31T12:56:55.546Z,1.50
2018-07-31T12:57:55.560Z,1.40
2018-07-31T12:58:55.578Z,1.40
2018-07-31T12:59:55.640Z,1.70
2018-07-31T13:00:55.606Z,1.40
2018-07-31T13:01:55.616Z,1.30
2018-07-31T13:02:55.624Z,1.70
2018-07-31T13:03:55.652Z,1.40
2018-07-31T13:04:55.670Z,1.40
2018-07-31T13:05:55.727Z,1.60
2018-07-31T13:06:55.704Z,1.40
2018-07-31T13:07:55.700Z,1.30
2018-07-31T13:08:55.721Z,1.40
2018-07-31T13:09:55.727Z,1.50
2018-07-31T13:10:55.742Z,1.60
2018-07-31T13:11:55.761Z,1.60
2018-07-31T13:12:55.772Z,1.40
2018-07-31T13:13:55.791Z,1.40
2018-07-31T13:14:55.804Z,1.30
2018-07-31T13:15:55.813Z,1.30
2018-07-31T13:16:55.827Z,1.50